Time;durP1;ratioP1;P1;durP2;ratioP2;P2;SDS_P1;SDS_P2;PMS_P1;PMS_P2;Temp;Humidity;BMP_temperature;BMP_pressure;BME280_temperature;BME280_humidity;BME280_pressure;Samples;Min_cycle;Max_cycle;Signal;HPM_P1;HPM_P2
2023/06/10 00:00:18;;;;;;;9.82;7.85;;;;;;;19.94;100.00;98834.03;5005779;28;20195;-77
2023/06/10 00:02:46;;;;;;;8.82;7.80;;;;;;;19.89;100.00;98831.00;4991374;28;20203;-77
2023/06/10 00:05:16;;;;;;;8.88;7.97;;;;;;;19.92;100.00;98825.28;4983116;28;20206;-77
2023/06/10 00:07:46;;;;;;;10.95;8.10;;;;;;;19.90;100.00;98828.16;4988838;28;20195;-77
2023/06/10 00:10:15;;;;;;;8.85;7.47;;;;;;;19.76;100.00;98827.94;4984014;28;20710;-77
2023/06/10 00:12:48;;;;;;;9.82;7.70;;;;;;;19.68;100.00;98824.22;4985950;28;20206;-77
2023/06/10 00:15:16;;;;;;;10.13;7.53;;;;;;;19.78;100.00;98824.06;4984600;28;20305;-77
2023/06/10 00:17:48;;;;;;;10.93;7.57;;;;;;;19.56;100.00;98827.38;4983302;28;20274;-77
2023/06/10 00:20:18;;;;;;;8.45;7.65;;;;;;;19.54;100.00;98824.00;4990941;28;20798;-77
2023/06/10 00:22:48;;;;;;;9.93;8.93;;;;;;;19.39;100.00;98816.53;4947975;28;20192;-77
2023/06/10 00:25:17;;;;;;;9.63;7.95;;;;;;;19.49;100.00;98820.94;4946626;28;20350;-78
2023/06/10 00:27:47;;;;;;;8.75;7.13;;;;;;;19.51;100.00;98821.63;4892255;29;20202;-77
2023/06/10 00:30:16;;;;;;;9.73;8.50;;;;;;;19.32;100.00;98826.28;4896544;29;20230;-77
2023/06/10 00:32:46;;;;;;;8.23;7.35;;;;;;;19.34;100.00;98824.25;4894466;29;20201;-77
2023/06/10 00:35:15;;;;;;;11.00;8.65;;;;;;;19.33;100.00;98824.44;4896699;29;20205;-77
2023/06/10 00:37:46;;;;;;;8.18;7.38;;;;;;;19.37;100.00;98817.72;4897683;29;20202;-77
2023/06/10 00:40:14;;;;;;;8.40;7.53;;;;;;;19.51;100.00;98818.94;4894231;29;20270;-77
2023/06/10 00:42:43;;;;;;;10.85;8.43;;;;;;;19.60;100.00;98820.69;4895108;29;20720;-77
2023/06/10 00:45:16;;;;;;;11.75;8.13;;;;;;;19.46;100.00;98824.78;4901604;29;20252;-77
2023/06/10 00:47:47;;;;;;;8.87;7.90;;;;;;;19.27;100.00;98817.00;4981816;28;20209;-77
2023/06/10 00:50:16;;;;;;;10.18;7.13;;;;;;;19.33;100.00;98822.59;5005702;28;20220;-77
2023/06/10 00:52:46;;;;;;;11.73;9.30;;;;;;;19.34;100.00;98810.81;4949736;29;20197;-77
2023/06/10 00:55:15;;;;;;;9.80;7.65;;;;;;;19.39;100.00;98818.38;4945900;29;20201;-77
2023/06/10 00:57:44;;;;;;;9.10;7.67;;;;;;;19.49;100.00;98819.09;4901067;29;20208;-77
2023/06/10 01:00:17;;;;;;;9.52;7.53;;;;;;;19.58;100.00;98818.16;4950731;29;20235;-77
2023/06/10 01:02:45;;;;;;;9.30;7.45;;;;;;;19.21;100.00;98817.66;4891301;29;20209;-77
2023/06/10 01:05:14;;;;;;;8.10;6.57;;;;;;;19.42;100.00;98810.03;4894470;29;20751;-77
2023/06/10 01:07:53;;;;;;;8.53;7.43;;;;;;;19.40;100.00;98817.41;4854673;29;20288;-77
2023/06/10 01:10:31;;;;;;;9.60;7.23;;;;;;;19.25;100.00;98813.66;4868463;29;20292;-77
2023/06/10 01:13:03;;;;;;;9.93;7.40;;;;;;;19.26;100.00;98826.06;4910119;29;20193;-77
2023/06/10 01:15:35;;;;;;;8.00;7.10;;;;;;;19.34;100.00;98816.19;4818869;29;20665;-77
2023/06/10 01:18:09;;;;;;;7.90;7.10;;;;;;;19.33;100.00;98817.22;4814149;29;20206;-77
2023/06/10 01:20:40;;;;;;;8.67;7.03;;;;;;;19.36;100.00;98824.09;4812559;29;20209;-77
2023/06/10 01:23:12;;;;;;;9.52;7.53;;;;;;;19.27;100.00;98820.53;4763158;30;20695;-77
2023/06/10 01:25:44;;;;;;;8.07;7.15;;;;;;;19.27;100.00;98823.22;4746083;30;20294;-77
2023/06/10 01:28:21;;;;;;;20.58;15.70;;;;;;;19.31;100.00;98821.91;4762450;30;20230;-77
2023/06/10 01:31:07;;;;;;;8.73;6.82;;;;;;;19.39;100.00;98821.06;4763801;30;20227;-77
2023/06/10 01:33:41;;;;;;;8.07;6.90;;;;;;;19.44;100.00;98827.66;4765489;30;20213;-77
2023/06/10 01:36:09;;;;;;;15.43;11.13;;;;;;;19.47;100.00;98820.25;4763875;30;20214;-77
2023/06/10 01:38:43;;;;;;;10.95;7.22;;;;;;;19.45;100.00;98820.44;4767722;30;20195;-77
2023/06/10 01:41:15;;;;;;;10.70;7.85;;;;;;;19.43;100.00;98830.50;4847120;29;20327;-77
2023/06/10 01:43:44;;;;;;;8.80;7.90;;;;;;;19.50;100.00;98825.34;4864565;29;20230;-76
2023/06/10 01:46:13;;;;;;;9.80;6.70;;;;;;;19.21;100.00;98829.25;4871980;29;20217;-77
2023/06/10 01:48:42;;;;;;;7.60;6.80;;;;;;;19.26;100.00;98826.91;4868859;29;20195;-77
2023/06/10 01:51:11;;;;;;;9.27;7.33;;;;;;;19.13;100.00;98819.31;4870615;29;20683;-77
2023/06/10 01:53:41;;;;;;;10.07;7.10;;;;;;;19.17;100.00;98825.19;4872259;29;20203;-77
2023/06/10 01:56:09;;;;;;;12.00;8.40;;;;;;;19.19;100.00;98830.41;4868549;29;20209;-77
2023/06/10 01:58:38;;;;;;;12.20;8.47;;;;;;;19.33;100.00;98827.13;4882933;29;20208;-76
2023/06/10 02:01:07;;;;;;;9.00;6.75;;;;;;;19.35;100.00;98830.47;4946582;29;20201;-77
2023/06/10 02:03:35;;;;;;;9.13;7.60;;;;;;;19.33;100.00;98832.47;4950185;29;20235;-77
2023/06/10 02:06:08;;;;;;;11.50;8.57;;;;;;;19.13;100.00;98835.41;4945651;29;20364;-77
2023/06/10 02:08:37;;;;;;;8.55;6.70;;;;;;;19.16;100.00;98835.09;4948621;29;20220;-76
2023/06/10 02:11:08;;;;;;;7.07;6.37;;;;;;;19.09;100.00;98843.94;4943184;29;20236;-77
2023/06/10 02:13:37;;;;;;;8.75;6.53;;;;;;;19.12;100.00;98846.31;4944918;29;20224;-77
2023/06/10 02:16:07;;;;;;;24.20;17.30;;;;;;;19.22;100.00;98838.16;4948793;29;20196;-77
2023/06/10 02:18:35;;;;;;;8.30;5.88;;;;;;;19.33;100.00;98835.16;4941289;29;20204;-77
2023/06/10 02:21:04;;;;;;;9.73;6.23;;;;;;;19.26;100.00;98831.44;4941547;29;20193;-77
2023/06/10 02:23:33;;;;;;;7.77;6.10;;;;;;;19.19;100.00;98833.91;4945711;29;20243;-77
2023/06/10 02:26:01;;;;;;;10.47;8.10;;;;;;;19.27;100.00;98838.50;4944239;28;20327;-77
2023/06/10 02:28:31;;;;;;;9.25;6.63;;;;;;;19.33;100.00;98832.47;4952510;28;20239;-77
2023/06/10 02:31:00;;;;;;;7.33;5.50;;;;;;;19.30;100.00;98839.03;4968453;28;20241;-77
2023/06/10 02:33:31;;;;;;;8.80;6.00;;;;;;;19.34;100.00;98836.84;4973109;28;20225;-77
2023/06/10 02:35:59;;;;;;;7.00;5.57;;;;;;;19.39;100.00;98839.88;5012710;28;20205;-77
2023/06/10 02:38:28;;;;;;;7.05;5.85;;;;;;;19.27;100.00;98842.00;5007836;28;20203;-77
2023/06/10 02:40:57;;;;;;;6.10;5.50;;;;;;;19.17;100.00;98843.97;5011201;28;20209;-77
2023/06/10 02:43:25;;;;;;;7.00;5.97;;;;;;;19.03;100.00;98844.59;5009640;28;20203;-77
2023/06/10 02:45:56;;;;;;;9.60;7.07;;;;;;;19.14;100.00;98847.84;5010658;28;20208;-77
2023/06/10 02:48:25;;;;;;;8.63;6.67;;;;;;;19.08;100.00;98853.84;5005982;28;20210;-77
2023/06/10 02:50:55;;;;;;;7.27;5.30;;;;;;;18.88;100.00;98849.69;5010061;28;20214;-77
2023/06/10 02:53:24;;;;;;;7.70;6.40;;;;;;;18.87;100.00;98851.53;5011983;28;20382;-77
2023/06/10 02:55:55;;;;;;;10.90;5.97;;;;;;;18.98;100.00;98847.75;5011442;28;20214;-77
2023/06/10 02:58:24;;;;;;;7.67;6.17;;;;;;;18.78;100.00;98844.44;5013033;28;20206;-77
2023/06/10 03:00:56;;;;;;;8.87;6.00;;;;;;;18.83;100.00;98846.66;5006283;28;20252;-76
2023/06/10 03:03:25;;;;;;;9.83;5.63;;;;;;;18.87;100.00;98848.84;5007036;28;20202;-77
2023/06/10 03:05:53;;;;;;;8.50;6.17;;;;;;;18.90;100.00;98838.81;5009532;28;20218;-77
2023/06/10 03:08:22;;;;;;;9.30;5.57;;;;;;;18.97;100.00;98839.84;5005483;28;20642;-77
2023/06/10 03:10:51;;;;;;;7.17;5.50;;;;;;;18.97;100.00;98842.53;4976615;28;20229;-77
2023/06/10 03:13:19;;;;;;;8.63;5.50;;;;;;;19.10;100.00;98845.63;5008679;28;20277;-77
2023/06/10 03:15:48;;;;;;;7.67;6.03;;;;;;;18.98;100.00;98837.00;5009565;28;20203;-77
2023/06/10 03:18:18;;;;;;;7.97;5.87;;;;;;;18.95;100.00;98840.03;5009439;28;20246;-77
2023/06/10 03:20:47;;;;;;;7.67;5.90;;;;;;;19.07;100.00;98848.63;5012087;28;20613;-77
2023/06/10 03:23:15;;;;;;;6.47;5.60;;;;;;;18.99;100.00;98843.22;5010602;28;20204;-77
2023/06/10 03:25:44;;;;;;;6.10;5.13;;;;;;;19.11;100.00;98850.00;5012599;28;20230;-77
2023/06/10 03:28:12;;;;;;;7.47;5.90;;;;;;;19.04;100.00;98847.13;5004789;28;20203;-77
2023/06/10 03:30:44;;;;;;;9.50;5.23;;;;;;;18.94;100.00;98848.22;5025775;28;20237;-77
2023/06/10 03:33:12;;;;;;;6.57;5.30;;;;;;;18.86;100.00;98852.53;5030379;28;20202;-77
2023/06/10 03:35:42;;;;;;;6.33;5.33;;;;;;;18.93;100.00;98865.34;5027394;28;20194;-77
2023/06/10 03:38:12;;;;;;;5.90;4.87;;;;;;;18.88;100.00;98860.44;5026696;28;20205;-77
2023/06/10 03:40:41;;;;;;;5.47;4.97;;;;;;;18.63;100.00;98861.25;5026979;28;20200;-77
2023/06/10 03:43:09;;;;;;;5.90;5.23;;;;;;;18.60;100.00;98870.44;5026879;28;20220;-77
2023/06/10 03:45:37;;;;;;;7.20;5.50;;;;;;;18.58;100.00;98862.56;5027584;28;20200;-77
2023/06/10 03:48:08;;;;;;;6.60;5.23;;;;;;;18.78;100.00;98878.47;5025338;28;20208;-77
2023/06/10 03:50:37;;;;;;;7.17;5.33;;;;;;;18.62;100.00;98868.44;5025176;28;20205;-77
2023/06/10 03:53:09;;;;;;;6.30;5.40;;;;;;;18.37;100.00;98875.47;5028654;28;20232;-77
2023/06/10 03:55:37;;;;;;;8.00;5.20;;;;;;;18.48;100.00;98877.91;5028431;28;20205;-76
2023/06/10 03:58:06;;;;;;;7.37;5.13;;;;;;;18.53;100.00;98875.59;5026821;28;20361;-77
2023/06/10 04:00:41;;;;;;;7.67;5.13;;;;;;;18.60;100.00;98882.00;5028291;28;20722;-77
2023/06/10 04:03:14;;;;;;;10.40;5.90;;;;;;;18.13;100.00;98889.47;5024649;28;20208;-77
2023/06/10 04:05:43;;;;;;;6.60;5.30;;;;;;;18.25;100.00;98877.53;5027888;28;20217;-77
2023/06/10 04:08:13;;;;;;;6.17;5.20;;;;;;;18.56;100.00;98874.44;5026015;28;20193;-77
2023/06/10 04:10:41;;;;;;;7.47;5.53;;;;;;;18.59;100.00;98880.31;5029249;28;20197;-77
2023/06/10 04:13:11;;;;;;;6.83;5.20;;;;;;;18.65;100.00;98876.22;5024634;28;20228;-76
2023/06/10 04:15:40;;;;;;;6.70;6.00;;;;;;;18.69;100.00;98882.94;5026113;28;20205;-77
2023/06/10 04:18:08;;;;;;;6.33;5.37;;;;;;;18.54;100.00;98888.00;5025684;28;20652;-77
2023/06/10 04:20:37;;;;;;;10.10;5.70;;;;;;;18.58;100.00;98878.66;5028875;28;20198;-77
2023/06/10 04:23:06;;;;;;;6.47;5.50;;;;;;;18.69;100.00;98880.25;5027400;28;20285;-77
2023/06/10 04:25:36;;;;;;;8.20;5.50;;;;;;;18.79;100.00;98886.38;5034310;28;20280;-76
2023/06/10 04:28:05;;;;;;;7.23;4.90;;;;;;;18.88;100.00;98887.28;5027272;28;20189;-76
2023/06/10 04:30:34;;;;;;;5.80;5.20;;;;;;;18.93;100.00;98889.50;5030229;28;20234;-76
2023/06/10 04:33:02;;;;;;;7.57;5.40;;;;;;;18.74;100.00;98888.69;5027824;28;20241;-77
2023/06/10 04:35:31;;;;;;;8.03;5.13;;;;;;;18.79;100.00;98901.63;5027581;28;20206;-77
2023/06/10 04:38:02;;;;;;;8.63;5.70;;;;;;;18.83;100.00;98903.88;5020746;28;20209;-77
2023/06/10 04:40:31;;;;;;;7.87;5.67;;;;;;;18.84;100.00;98902.84;5025441;28;20659;-77
2023/06/10 04:43:01;;;;;;;7.63;5.47;;;;;;;18.85;100.00;98892.97;5022401;28;20201;-77
2023/06/10 04:45:29;;;;;;;8.97;6.17;;;;;;;18.89;100.00;98888.94;5023515;28;20219;-77
2023/06/10 04:48:01;;;;;;;7.47;5.90;;;;;;;18.74;100.00;98888.69;5030883;28;20189;-77
2023/06/10 04:50:30;;;;;;;11.67;6.10;;;;;;;18.68;100.00;98892.00;5029925;28;20231;-76
2023/06/10 04:52:58;;;;;;;7.07;5.97;;;;;;;18.67;100.00;98900.22;5022828;28;20229;-77
2023/06/10 04:55:27;;;;;;;7.00;5.80;;;;;;;18.66;100.00;98902.06;5019085;28;20212;-77
2023/06/10 04:57:57;;;;;;;10.03;6.47;;;;;;;18.80;100.00;98897.94;5025452;28;20197;-76
2023/06/10 05:00:27;;;;;;;6.80;6.10;;;;;;;18.73;100.00;98902.28;5027565;28;20201;-77
2023/06/10 05:02:55;;;;;;;9.97;6.23;;;;;;;18.97;100.00;98897.06;5013004;28;20194;-77
2023/06/10 05:05:25;;;;;;;8.87;6.20;;;;;;;18.92;100.00;98899.41;5022043;28;20255;-77
2023/06/10 05:07:55;;;;;;;7.57;6.30;;;;;;;18.86;100.00;98900.84;5023696;28;20197;-77
2023/06/10 05:10:24;;;;;;;8.30;6.57;;;;;;;18.88;100.00;98896.16;5027998;28;20206;-76
2023/06/10 05:12:53;;;;;;;11.33;6.17;;;;;;;18.75;100.00;98900.28;5026682;28;20251;-77
2023/06/10 05:15:22;;;;;;;8.67;6.80;;;;;;;18.86;100.00;98897.31;5024287;28;20641;-77
2023/06/10 05:17:52;;;;;;;7.60;6.33;;;;;;;18.93;100.00;98901.06;5028119;28;20197;-77
2023/06/10 05:20:20;;;;;;;13.17;7.23;;;;;;;18.67;100.00;98902.88;5027528;28;20224;-77
2023/06/10 05:22:49;;;;;;;7.57;6.87;;;;;;;18.97;100.00;98901.59;5024189;28;20205;-77
2023/06/10 05:25:17;;;;;;;10.43;6.60;;;;;;;18.96;100.00;98895.38;5021459;28;20206;-77
2023/06/10 05:27:46;;;;;;;7.87;6.83;;;;;;;19.18;100.00;98907.44;5025699;28;20197;-77
2023/06/10 05:30:14;;;;;;;10.70;6.97;;;;;;;19.13;100.00;98907.91;5027434;28;20225;-77
2023/06/10 05:32:43;;;;;;;10.07;6.90;;;;;;;19.35;100.00;98911.88;5025574;28;20726;-77
2023/06/10 05:35:14;;;;;;;9.40;6.40;;;;;;;19.04;100.00;98905.34;4982954;28;20206;-76
2023/06/10 05:37:42;;;;;;;9.43;6.70;;;;;;;19.05;100.00;98907.84;4988880;28;20222;-77
2023/06/10 05:40:11;;;;;;;8.23;6.43;;;;;;;19.29;100.00;98909.84;4988247;28;20210;-77
2023/06/10 05:42:40;;;;;;;6.93;6.20;;;;;;;19.26;100.00;98904.78;4982389;28;20199;-77
2023/06/10 05:45:10;;;;;;;8.47;6.63;;;;;;;19.38;100.00;98908.88;4988768;28;20187;-77
2023/06/10 05:47:39;;;;;;;7.67;6.00;;;;;;;19.35;100.00;98913.72;4991374;28;20191;-77
2023/06/10 05:50:09;;;;;;;9.23;5.77;;;;;;;19.65;100.00;98907.84;4986443;28;20226;-77
2023/06/10 05:52:41;;;;;;;10.00;6.87;;;;;;;19.60;100.00;98907.50;4988988;28;20256;-77
2023/06/10 05:55:10;;;;;;;9.43;6.07;;;;;;;19.77;100.00;98916.47;4950003;29;20283;-77
2023/06/10 05:57:39;;;;;;;7.83;5.93;;;;;;;19.79;100.00;98924.38;4944976;29;20264;-77
2023/06/10 06:00:09;;;;;;;8.57;6.50;;;;;;;19.81;100.00;98922.38;4949733;29;20224;-77
2023/06/10 06:02:37;;;;;;;7.43;6.20;;;;;;;19.90;100.00;98918.72;4946115;29;20207;-77
2023/06/10 06:05:06;;;;;;;8.93;6.23;;;;;;;20.09;100.00;98917.59;4950877;29;20207;-77
2023/06/10 06:07:38;;;;;;;7.37;5.80;;;;;;;20.12;100.00;98912.72;4984669;28;20219;-77
2023/06/10 06:10:07;;;;;;;9.27;5.97;;;;;;;20.26;100.00;98911.19;4981740;28;20210;-77
2023/06/10 06:12:35;;;;;;;7.47;6.13;;;;;;;20.32;100.00;98915.09;4990082;28;20225;-77
2023/06/10 06:15:05;;;;;;;9.80;6.23;;;;;;;20.47;100.00;98918.84;5027201;28;20201;-77
2023/06/10 06:17:34;;;;;;;8.00;6.33;;;;;;;20.47;100.00;98919.69;5025355;28;20197;-77
2023/06/10 06:20:03;;;;;;;8.30;6.28;;;;;;;20.49;100.00;98922.22;5028456;28;20229;-77
2023/06/10 06:22:31;;;;;;;9.57;6.20;;;;;;;20.60;100.00;98921.03;5021613;28;20193;-77
2023/06/10 06:25:02;;;;;;;6.63;6.03;;;;;;;20.77;100.00;98923.56;4991016;28;20208;-77
2023/06/10 06:27:31;;;;;;;6.70;6.00;;;;;;;20.81;100.00;98913.28;5022651;28;20208;-77
2023/06/10 06:29:59;;;;;;;7.83;6.20;;;;;;;20.96;100.00;98916.16;5027349;28;20218;-77
2023/06/10 06:32:29;;;;;;;7.40;5.70;;;;;;;21.14;100.00;98917.63;5020217;28;20689;-77
2023/06/10 06:34:58;;;;;;;6.40;5.38;;;;;;;21.22;100.00;98919.44;5026673;28;20280;-77
2023/06/10 06:37:27;;;;;;;6.10;5.28;;;;;;;21.29;100.00;98915.09;5024635;28;20225;-77
2023/06/10 06:39:56;;;;;;;8.13;6.13;;;;;;;21.47;100.00;98916.72;5022877;28;20198;-77
2023/06/10 06:42:30;;;;;;;11.98;6.13;;;;;;;21.50;100.00;98914.50;5023008;28;20205;-77
2023/06/10 06:44:59;;;;;;;7.80;6.35;;;;;;;21.42;100.00;98919.94;5021248;28;20205;-77
2023/06/10 06:47:28;;;;;;;8.10;6.25;;;;;;;21.73;100.00;98924.56;5022019;28;20276;-77
2023/06/10 06:49:57;;;;;;;8.00;6.28;;;;;;;21.70;100.00;98923.88;5026101;28;20202;-78
2023/06/10 06:52:25;;;;;;;7.13;6.10;;;;;;;21.80;100.00;98915.56;4963278;28;20227;-77
2023/06/10 06:54:53;;;;;;;8.15;5.70;;;;;;;22.00;100.00;98914.13;4962047;28;20233;-77
2023/06/10 06:57:23;;;;;;;6.72;6.03;;;;;;;22.03;100.00;98914.78;4970178;28;20423;-77
2023/06/10 06:59:53;;;;;;;8.55;6.00;;;;;;;21.94;100.00;98919.41;4965026;28;20202;-77
2023/06/10 07:02:22;;;;;;;11.48;6.20;;;;;;;21.94;100.00;98920.22;4967619;28;20302;-77
2023/06/10 07:04:51;;;;;;;8.63;6.13;;;;;;;22.27;100.00;98923.59;4964496;28;20203;-77
2023/06/10 07:07:19;;;;;;;7.90;6.30;;;;;;;22.18;100.00;98923.81;4964556;28;20188;-77
2023/06/10 07:09:48;;;;;;;7.78;6.38;;;;;;;22.27;100.00;98928.16;4971098;28;20202;-77
2023/06/10 07:12:17;;;;;;;7.35;5.55;;;;;;;22.31;100.00;98932.19;5025302;28;20190;-77
2023/06/10 07:14:46;;;;;;;11.05;6.15;;;;;;;22.38;100.00;98935.00;5035289;28;20194;-77
2023/06/10 07:17:17;;;;;;;10.10;6.43;;;;;;;22.59;100.00;98934.38;5032798;28;20378;-77
2023/06/10 07:19:46;;;;;;;8.25;5.85;;;;;;;22.66;100.00;98936.13;5029397;28;20201;-77
2023/06/10 07:22:15;;;;;;;9.40;6.30;;;;;;;22.63;100.00;98933.81;5027322;28;20205;-78
2023/06/10 07:24:43;;;;;;;9.48;6.07;;;;;;;22.84;100.00;98934.00;5029878;28;20197;-77
2023/06/10 07:27:11;;;;;;;8.98;6.18;;;;;;;22.87;100.00;98935.50;5022836;28;20217;-78
2023/06/10 07:29:40;;;;;;;9.20;5.65;;;;;;;23.02;100.00;98930.97;5029507;28;20234;-77
2023/06/10 07:32:09;;;;;;;8.98;6.25;;;;;;;23.11;100.00;98923.63;5023950;28;20209;-77
2023/06/10 07:34:39;;;;;;;7.63;5.68;;;;;;;23.03;100.00;98929.94;5024611;28;20229;-77
2023/06/10 07:37:09;;;;;;;6.13;5.53;;;;;;;23.23;100.00;98930.25;5027861;28;20194;-77
2023/06/10 07:39:38;;;;;;;7.00;6.22;;;;;;;23.19;100.00;98925.41;5032299;28;20204;-77
2023/06/10 07:42:07;;;;;;;7.38;6.03;;;;;;;23.36;100.00;98933.16;5027690;28;20209;-78
2023/06/10 07:44:35;;;;;;;9.02;6.28;;;;;;;23.44;100.00;98926.81;5031660;28;20201;-77
2023/06/10 07:47:07;;;;;;;10.57;6.57;;;;;;;23.43;100.00;98934.09;5029978;28;20202;-77
2023/06/10 07:49:36;;;;;;;8.63;6.38;;;;;;;23.51;100.00;98935.03;5028167;28;20198;-77
2023/06/10 07:52:08;;;;;;;9.25;5.53;;;;;;;23.51;100.00;98941.28;5027019;28;20236;-77
2023/06/10 07:54:36;;;;;;;6.80;6.00;;;;;;;23.62;100.00;98948.09;5026260;28;20221;-77
2023/06/10 07:57:06;;;;;;;7.35;6.18;;;;;;;23.76;100.00;98946.44;5033565;28;20198;-77
2023/06/10 07:59:39;;;;;;;6.65;5.35;;;;;;;24.08;100.00;98947.88;5027878;28;20201;-77
2023/06/10 08:02:07;;;;;;;9.73;5.93;;;;;;;24.20;98.09;98940.94;5031957;28;20209;-77
2023/06/10 08:04:36;;;;;;;8.93;6.10;;;;;;;24.05;99.74;98941.00;5026517;28;20663;-78
2023/06/10 08:07:07;;;;;;;7.80;5.72;;;;;;;24.35;96.87;98941.78;5024055;28;20240;-78
2023/06/10 08:09:38;;;;;;;9.10;6.47;;;;;;;24.16;98.33;98934.25;5020816;28;20251;-77
2023/06/10 08:12:08;;;;;;;7.30;5.97;;;;;;;24.25;99.74;98933.94;5027206;28;20277;-78
2023/06/10 08:14:36;;;;;;;8.68;5.72;;;;;;;24.34;95.44;98929.28;5026396;28;20214;-78
2023/06/10 08:17:06;;;;;;;6.25;5.60;;;;;;;24.62;99.46;98934.75;5028148;28;20748;-77
2023/06/10 08:19:34;;;;;;;6.75;5.65;;;;;;;24.38;100.00;98932.41;5029544;28;20193;-77
2023/06/10 08:22:03;;;;;;;6.00;5.20;;;;;;;24.37;100.00;98937.00;5030209;28;20199;-77
2023/06/10 08:24:34;;;;;;;9.95;6.43;;;;;;;24.73;100.00;98928.00;5031193;28;20197;-77
2023/06/10 08:27:02;;;;;;;9.88;5.72;;;;;;;25.03;92.20;98931.41;5029293;28;20209;-77
2023/06/10 08:29:32;;;;;;;8.43;5.93;;;;;;;24.94;93.06;98927.97;5025887;28;20226;-77
2023/06/10 08:32:01;;;;;;;8.35;6.20;;;;;;;25.31;90.16;98937.66;5029086;28;20284;-78
2023/06/10 08:34:31;;;;;;;7.90;5.88;;;;;;;25.48;86.45;98940.03;5029837;28;20214;-78
2023/06/10 08:36:59;;;;;;;8.27;6.07;;;;;;;25.53;86.49;98927.56;4999105;28;20205;-77
2023/06/10 08:39:31;;;;;;;7.00;5.72;;;;;;;25.65;82.63;98925.13;5021115;28;20220;-78
2023/06/10 08:42:12;;;;;;;7.22;6.10;;;;;;;25.93;82.72;98928.63;5026599;28;20201;-78
2023/06/10 08:44:41;;;;;;;8.50;6.22;;;;;;;25.92;84.07;98916.09;5033932;28;20194;-78
2023/06/10 08:47:15;;;;;;;9.43;6.13;;;;;;;25.89;85.59;98924.66;5025004;28;20202;-78
2023/06/10 08:49:46;;;;;;;9.70;6.00;;;;;;;25.87;86.28;98920.47;5033882;28;20209;-78
2023/06/10 08:52:17;;;;;;;9.07;5.75;;;;;;;25.68;85.57;98924.75;5025977;28;20198;-78
2023/06/10 08:54:53;;;;;;;6.53;5.68;;;;;;;25.99;88.52;98915.28;5022959;28;20286;-78
2023/06/10 08:57:26;;;;;;;9.23;5.53;;;;;;;26.16;83.52;98922.03;5026791;28;20194;-78
2023/06/10 08:59:55;;;;;;;7.72;5.93;;;;;;;26.52;79.99;98916.28;5029739;28;20198;-78
2023/06/10 09:02:24;;;;;;;6.70;5.40;;;;;;;26.13;80.85;98909.69;5024446;28;20202;-78
2023/06/10 09:04:53;;;;;;;10.00;5.20;;;;;;;26.61;79.54;98927.81;5021150;28;20198;-78
2023/06/10 09:07:22;;;;;;;7.13;5.80;;;;;;;26.87;75.61;98918.84;5025448;28;20280;-78
2023/06/10 09:09:53;;;;;;;6.05;5.53;;;;;;;26.68;74.00;98915.91;5027639;28;20273;-78
2023/06/10 09:12:21;;;;;;;8.57;5.88;;;;;;;27.02;75.96;98919.44;5028275;28;20276;-78
2023/06/10 09:14:51;;;;;;;8.50;5.30;;;;;;;26.85;65.69;98921.78;5026731;28;20221;-78
2023/06/10 09:17:20;;;;;;;6.47;5.68;;;;;;;27.21;72.21;98917.78;5012467;28;20235;-78
2023/06/10 09:19:49;;;;;;;9.40;5.80;;;;;;;27.08;74.34;98918.66;5026972;28;20190;-77
2023/06/10 09:22:19;;;;;;;9.23;5.90;;;;;;;27.17;69.02;98916.56;5027590;28;20230;-78
2023/06/10 09:24:48;;;;;;;8.00;5.70;;;;;;;27.19;68.29;98920.72;5024745;28;20197;-78
2023/06/10 09:27:16;;;;;;;7.95;5.60;;;;;;;27.34;67.38;98907.75;5023780;28;20660;-78
2023/06/10 09:29:49;;;;;;;7.90;6.40;;;;;;;27.21;69.16;98905.03;4991182;28;20356;-78
2023/06/10 09:32:20;;;;;;;8.18;5.82;;;;;;;27.42;69.28;98903.97;5013397;28;20218;-78
2023/06/10 09:34:50;;;;;;;10.88;6.20;;;;;;;27.43;69.17;98908.38;5007505;28;20225;-78
2023/06/10 09:37:22;;;;;;;12.40;11.10;;;;;;;27.55;62.42;98913.97;5002828;28;20209;-78
2023/06/10 09:40:04;;;;;;;7.22;6.50;;;;;;;27.51;64.10;98916.31;5009316;28;20216;-78
2023/06/10 09:42:36;;;;;;;6.60;5.45;;;;;;;27.73;64.29;98908.72;5002819;28;20209;-78
2023/06/10 09:45:05;;;;;;;6.13;5.53;;;;;;;27.59;65.71;98916.03;5013181;28;20191;-78
2023/06/10 09:47:39;;;;;;;11.00;6.43;;;;;;;27.90;64.37;98904.47;5008466;28;20673;-78
2023/06/10 09:50:08;;;;;;;8.05;5.60;;;;;;;27.91;64.29;98917.03;5005338;28;20186;-78
2023/06/10 09:52:39;;;;;;;7.93;6.53;;;;;;;28.33;66.44;98908.47;5010526;28;20198;-78
2023/06/10 09:55:10;;;;;;;7.50;6.68;;;;;;;28.20;58.35;98920.25;5006290;28;20744;-78
2023/06/10 09:57:44;;;;;;;7.57;5.70;;;;;;;28.69;56.82;98913.25;5002433;28;20210;-78
2023/06/10 10:00:13;;;;;;;7.95;5.10;;;;;;;28.59;59.45;98904.75;5002149;28;20217;-78
2023/06/10 10:02:48;;;;;;;7.93;5.03;;;;;;;28.64;59.96;98894.81;5008243;28;20198;-78
2023/06/10 10:05:19;;;;;;;8.30;5.13;;;;;;;28.97;59.75;98905.50;5006825;28;20206;-77
2023/06/10 10:07:49;;;;;;;7.22;5.57;;;;;;;28.92;57.98;98901.78;5010126;28;20587;-78
2023/06/10 10:10:20;;;;;;;6.65;5.63;;;;;;;29.14;56.32;98903.03;5000154;28;20226;-78
2023/06/10 10:12:52;;;;;;;6.25;5.30;;;;;;;29.17;55.91;98897.16;5006015;28;20229;-78
2023/06/10 10:15:23;;;;;;;7.00;5.20;;;;;;;29.10;55.51;98904.56;5004363;28;20225;-78
2023/06/10 10:17:57;;;;;;;6.97;5.43;;;;;;;29.23;54.18;98903.59;5003842;28;20198;-78
2023/06/10 10:20:30;;;;;;;6.90;5.45;;;;;;;29.29;54.29;98895.34;5001793;28;20208;-78
2023/06/10 10:23:00;;;;;;;8.85;5.43;;;;;;;29.35;55.38;98897.19;5007091;28;20245;-78
2023/06/10 10:25:31;;;;;;;8.50;5.55;;;;;;;29.54;55.43;98898.06;5007255;28;20646;-78
2023/06/10 10:28:07;;;;;;;6.85;4.95;;;;;;;29.95;52.53;98898.41;5001877;28;20218;-78
2023/06/10 10:30:41;;;;;;;6.82;4.90;;;;;;;29.89;50.09;98892.78;5017871;28;20304;-78
2023/06/10 10:33:17;;;;;;;6.63;5.13;;;;;;;29.69;45.34;98891.38;5027330;28;20324;-78
2023/06/10 10:35:47;;;;;;;5.75;4.95;;;;;;;30.18;42.88;98893.91;5023150;28;20251;-78
2023/06/10 10:38:16;;;;;;;7.82;4.80;;;;;;;30.32;42.32;98893.75;5026422;28;20185;-78
2023/06/10 10:40:48;;;;;;;5.97;4.82;;;;;;;30.39;42.43;98892.56;5028023;28;20213;-78
2023/06/10 10:43:18;;;;;;;8.23;4.65;;;;;;;30.28;40.37;98892.53;5024893;28;20209;-78
2023/06/10 10:45:58;;;;;;;6.80;4.70;;;;;;;30.68;40.93;98881.84;5029598;28;20194;-78
2023/06/10 10:48:35;;;;;;;5.47;4.53;;;;;;;30.99;39.46;98886.19;5031383;28;20204;-78
2023/06/10 10:51:04;;;;;;;5.40;4.68;;;;;;;30.65;40.85;98891.34;5026156;28;20710;-77
2023/06/10 10:53:33;;;;;;;6.22;4.40;;;;;;;30.36;41.67;98890.28;4950100;29;20315;-78
2023/06/10 10:56:09;;;;;;;8.00;4.63;;;;;;;30.55;40.95;98885.59;4952178;29;20258;-76
2023/06/10 10:58:41;;;;;;;7.70;4.70;;;;;;;31.07;40.35;98891.28;4922257;29;20653;-78
2023/06/10 11:01:14;;;;;;;6.22;4.85;;;;;;;30.77;39.86;98884.00;4947206;29;20348;-78
2023/06/10 11:03:48;;;;;;;4.78;4.38;;;;;;;30.76;40.05;98885.06;4949610;29;20312;-78
2023/06/10 11:06:19;;;;;;;6.40;4.55;;;;;;;30.77;38.22;98881.25;4906050;29;20206;-77
2023/06/10 11:08:50;;;;;;;7.90;4.55;;;;;;;30.40;38.22;98879.72;4955550;29;20199;-78
2023/06/10 11:11:25;;;;;;;5.32;4.57;;;;;;;30.71;39.03;98882.22;4949343;29;20204;-77
2023/06/10 11:14:09;;;;;;;5.03;4.53;;;;;;;30.75;38.31;98879.84;4955921;29;20337;-78
2023/06/10 11:16:42;;;;;;;5.53;4.40;;;;;;;31.19;38.26;98864.75;4952672;29;20223;-78
2023/06/10 11:19:33;;;;;;;6.18;4.68;;;;;;;31.85;36.72;98860.78;5025535;28;20190;-78
2023/06/10 11:22:05;;;;;;;6.45;4.45;;;;;;;31.76;38.06;98867.72;5035703;28;20254;-78
2023/06/10 11:24:34;;;;;;;5.70;4.40;;;;;;;30.95;37.86;98858.44;4992880;28;20209;-77
2023/06/10 11:27:19;;;;;;;8.70;4.75;;;;;;;31.26;34.93;98861.91;5031626;28;20197;-78
2023/06/10 11:30:18;;;;;;;4.95;4.50;;;;;;;31.11;35.79;98856.06;5025772;28;20237;-78
2023/06/10 11:32:52;;;;;;;7.28;5.25;;;;;;;31.25;34.86;98861.09;5032274;28;20198;-77
2023/06/10 11:35:24;;;;;;;11.10;5.50;;;;;;;31.49;35.23;98852.84;5032377;28;20275;-78
2023/06/10 11:37:53;;;;;;;6.65;5.80;;;;;;;31.11;35.56;98869.75;5021422;28;20209;-78
2023/06/10 11:40:23;;;;;;;9.23;6.28;;;;;;;31.28;34.61;98857.88;5025993;28;20201;-77